Time;durP1;ratioP1;P1;durP2;ratioP2;P2;SDS_P1;SDS_P2;PMS_P1;PMS_P2;Temp;Humidity;BMP_temperature;BMP_pressure;BME280_temperature;BME280_humidity;BME280_pressure;Samples;Min_cycle;Max_cycle;Signal;HPM_P1;HPM_P2
2022/03/15 00:00:19;;;;;;;17.23;12.18;;;;;;;7.43;63.23;102240.78;693383;28;1236;-93
2022/03/15 00:00:40;;;;;;;18.40;12.23;;;;;;;7.52;63.32;102250.88;690690;28;1415;-93
2022/03/15 00:01:00;;;;;;;20.40;12.50;;;;;;;7.48;63.28;102235.88;692950;28;1384;-93
2022/03/15 00:01:21;;;;;;;20.80;12.63;;;;;;;7.48;63.01;102233.28;692248;28;1259;-93
2022/03/15 00:01:42;;;;;;;21.67;12.75;;;;;;;7.51;62.97;102236.09;690207;28;1309;-93
2022/03/15 00:02:03;;;;;;;19.80;13.10;;;;;;;7.50;63.04;102242.97;690530;28;1229;-93
2022/03/15 00:02:24;;;;;;;19.15;13.23;;;;;;;7.50;63.08;102244.69;689920;28;1312;-93
2022/03/15 00:02:45;;;;;;;17.63;12.77;;;;;;;7.49;63.14;102242.91;696008;28;1505;-93
2022/03/15 00:03:05;;;;;;;18.58;13.00;;;;;;;7.44;63.16;102239.09;693333;28;1242;-93
2022/03/15 00:03:26;;;;;;;17.45;12.98;;;;;;;7.49;63.02;102251.56;689874;28;1378;-93
2022/03/15 00:03:47;;;;;;;19.93;13.70;;;;;;;7.44;63.13;102237.41;693574;28;1208;-94
2022/03/15 00:04:07;;;;;;;20.65;13.60;;;;;;;7.60;62.76;102254.88;693812;28;1395;-93
2022/03/15 00:04:30;;;;;;;24.48;13.48;;;;;;;7.60;62.89;102244.47;693207;28;1339;-93
2022/03/15 00:04:51;;;;;;;21.70;12.68;;;;;;;7.59;62.88;102249.56;695020;28;1347;-93
2022/03/15 00:05:11;;;;;;;20.20;12.40;;;;;;;7.59;62.94;102263.47;692800;28;1415;-93
2022/03/15 00:05:33;;;;;;;17.73;12.43;;;;;;;7.46;62.62;102243.59;698205;28;1210;-93
2022/03/15 00:05:54;;;;;;;18.88;12.50;;;;;;;7.47;62.96;102244.47;697993;28;1367;-93
2022/03/15 00:06:15;;;;;;;20.30;12.80;;;;;;;7.42;62.84;102241.59;691789;28;1280;-93
2022/03/15 00:06:36;;;;;;;17.70;12.40;;;;;;;7.44;63.29;102246.88;695363;28;1360;-93
2022/03/15 00:06:56;;;;;;;17.30;12.07;;;;;;;7.44;63.33;102258.19;690069;28;1746;-93
2022/03/15 00:07:17;;;;;;;17.30;12.00;;;;;;;7.42;63.33;102245.91;688706;28;1275;-93
2022/03/15 00:07:37;;;;;;;17.85;12.10;;;;;;;7.44;62.87;102252.09;690449;28;1468;-93
2022/03/15 00:07:58;;;;;;;18.17;12.63;;;;;;;7.35;63.30;102241.97;692270;28;1343;-94
2022/03/15 00:08:21;;;;;;;17.43;12.53;;;;;;;7.47;63.01;102257.47;690124;28;1336;-93
2022/03/15 00:08:44;;;;;;;20.45;13.10;;;;;;;7.45;63.01;102253.88;691841;28;1419;-93
2022/03/15 00:09:05;;;;;;;20.77;12.60;;;;;;;7.39;63.51;102239.69;695056;28;1364;-92
2022/03/15 00:09:26;;;;;;;20.05;12.27;;;;;;;7.44;62.86;102254.69;688621;28;1330;-93
2022/03/15 00:09:46;;;;;;;20.40;12.30;;;;;;;7.25;63.52;102243.09;685839;28;1235;-93
2022/03/15 00:10:07;;;;;;;19.20;12.30;;;;;;;7.29;63.18;102258.06;694279;28;1353;-94
2022/03/15 00:10:28;;;;;;;21.15;12.40;;;;;;;7.40;63.51;102261.38;698070;28;1413;-93
2022/03/15 00:10:49;;;;;;;20.02;12.48;;;;;;;7.42;63.22;102266.69;693025;28;1915;-93
2022/03/15 00:11:10;;;;;;;20.30;12.60;;;;;;;7.38;63.46;102258.66;690414;28;1330;-93
2022/03/15 00:11:34;;;;;;;20.20;13.15;;;;;;;7.42;63.21;102253.69;693563;28;1285;-93
2022/03/15 00:11:56;;;;;;;19.13;12.70;;;;;;;7.37;63.62;102256.88;690141;28;1316;-93
2022/03/15 00:12:17;;;;;;;20.25;12.95;;;;;;;7.37;63.10;102258.59;688888;28;1363;-93
2022/03/15 00:12:39;;;;;;;19.13;12.75;;;;;;;7.33;63.20;102248.78;689907;28;1364;-93
2022/03/15 00:12:59;;;;;;;18.92;12.57;;;;;;;7.32;62.85;102247.91;695354;28;1510;-94
2022/03/15 00:13:20;;;;;;;17.95;12.25;;;;;;;7.35;63.42;102245.50;687877;28;1180;-93
2022/03/15 00:13:53;;;;;;;17.70;12.30;;;;;;;7.32;63.31;102244.41;693175;28;1368;-93
2022/03/15 00:14:14;;;;;;;17.38;12.13;;;;;;;7.35;63.59;102247.19;689716;28;1404;-93
2022/03/15 00:14:37;;;;;;;19.45;12.57;;;;;;;7.38;63.56;102258.66;690657;28;1305;-93
2022/03/15 00:14:57;;;;;;;19.02;12.57;;;;;;;7.40;63.52;102250.97;693382;28;1320;-93
2022/03/15 00:15:18;;;;;;;18.43;12.57;;;;;;;7.47;63.16;102241.88;694875;28;1500;-93
2022/03/15 00:15:41;;;;;;;16.38;12.00;;;;;;;7.52;63.19;102246.59;690011;28;1942;-93
2022/03/15 00:16:02;;;;;;;19.15;12.52;;;;;;;7.64;62.57;102255.97;694776;28;1255;-93
2022/03/15 00:16:23;;;;;;;20.60;12.93;;;;;;;7.62;62.75;102247.19;695109;28;1339;-93
2022/03/15 00:16:44;;;;;;;22.13;12.93;;;;;;;7.70;62.64;102260.66;693670;28;1411;-93
2022/03/15 00:17:05;;;;;;;21.42;12.70;;;;;;;7.71;62.39;102257.25;693344;28;1332;-93
2022/03/15 00:17:26;;;;;;;20.20;12.38;;;;;;;7.70;62.64;102252.84;692001;28;1367;-93
2022/03/15 00:17:47;;;;;;;18.95;12.07;;;;;;;7.56;62.32;102236.38;690377;28;1547;-93
2022/03/15 00:18:09;;;;;;;19.25;12.00;;;;;;;7.61;62.04;102251.47;692486;28;1300;-94
2022/03/15 00:18:30;;;;;;;21.08;12.15;;;;;;;7.59;62.37;102240.09;695334;28;1413;-93
2022/03/15 00:18:52;;;;;;;19.67;12.15;;;;;;;7.70;62.42;102255.44;692728;28;1318;-93
2022/03/15 00:19:13;;;;;;;20.45;12.55;;;;;;;7.72;62.44;102259.94;691815;28;1350;-94
2022/03/15 00:19:34;;;;;;;18.70;12.68;;;;;;;7.72;62.39;102256.44;692758;28;1189;-92
2022/03/15 00:19:54;;;;;;;19.23;12.57;;;;;;;7.62;62.15;102250.66;692480;28;1336;-93
2022/03/15 00:20:19;;;;;;;19.70;12.07;;;;;;;7.44;62.64;102259.88;695329;28;1411;-92
2022/03/15 00:20:39;;;;;;;20.30;11.88;;;;;;;7.16;63.18;102239.88;693312;28;1424;-93
2022/03/15 00:21:03;;;;;;;20.93;12.00;;;;;;;7.13;63.80;102244.06;690724;28;1285;-93
2022/03/15 00:21:25;;;;;;;20.70;12.40;;;;;;;7.13;63.83;102256.19;690443;28;1397;-93
2022/03/15 00:21:45;;;;;;;19.33;12.68;;;;;;;7.33;63.74;102243.59;692549;28;1322;-92
2022/03/15 00:22:07;;;;;;;20.00;12.70;;;;;;;7.47;63.42;102247.06;695689;28;1947;-93
2022/03/15 00:22:27;;;;;;;20.70;12.50;;;;;;;7.50;63.17;102247.28;690485;28;1259;-93
2022/03/15 00:22:49;;;;;;;21.95;12.20;;;;;;;7.51;62.94;102236.09;691174;28;1360;-93
2022/03/15 00:23:10;;;;;;;21.90;12.32;;;;;;;7.57;62.81;102244.28;689287;28;1387;-93
2022/03/15 00:23:31;;;;;;;21.83;12.52;;;;;;;7.62;62.29;102252.38;687671;28;1282;-93
2022/03/15 00:23:52;;;;;;;20.08;12.82;;;;;;;7.66;62.47;102255.25;691249;28;1376;-93
2022/03/15 00:24:12;;;;;;;18.77;13.20;;;;;;;7.58;62.33;102246.09;691567;28;1317;-93
2022/03/15 00:24:33;;;;;;;20.30;13.18;;;;;;;7.37;62.93;102236.09;691968;28;1313;-92
2022/03/15 00:24:55;;;;;;;20.17;12.68;;;;;;;7.44;63.06;102253.00;692988;28;1566;-93
2022/03/15 00:25:17;;;;;;;19.40;12.07;;;;;;;7.43;63.15;102242.50;692030;28;1218;-93
2022/03/15 00:25:37;;;;;;;19.67;12.20;;;;;;;7.37;63.05;102238.69;694927;28;1344;-93
2022/03/15 00:26:00;;;;;;;19.40;12.60;;;;;;;7.38;63.42;102243.09;689713;28;1308;-93
2022/03/15 00:26:20;;;;;;;19.20;12.38;;;;;;;7.33;63.57;102234.13;692596;28;1581;-93
2022/03/15 00:26:41;;;;;;;19.53;12.20;;;;;;;7.36;63.01;102238.56;692614;28;1575;-93
2022/03/15 00:27:06;;;;;;;18.00;11.27;;;;;;;7.34;63.48;102241.09;687774;28;1289;-93
2022/03/15 00:27:27;;;;;;;16.75;11.40;;;;;;;7.34;63.32;102240.19;689841;28;1388;-93
2022/03/15 00:27:52;;;;;;;17.55;12.13;;;;;;;7.34;63.28;102241.09;690736;28;1298;-93
2022/03/15 00:28:13;;;;;;;21.52;13.00;;;;;;;7.37;63.32;102248.19;692773;28;1267;-93
2022/03/15 00:28:36;;;;;;;22.23;12.70;;;;;;;7.31;63.16;102245.19;690673;28;1361;-93
2022/03/15 00:28:56;;;;;;;20.90;12.45;;;;;;;7.31;63.19;102235.69;693402;28;1226;-93
2022/03/15 00:29:18;;;;;;;18.80;12.60;;;;;;;7.34;63.04;102240.19;694076;28;1257;-93
2022/03/15 00:29:39;;;;;;;17.67;12.45;;;;;;;7.42;63.01;102226.00;690032;28;1297;-93
2022/03/15 00:30:01;;;;;;;20.65;12.13;;;;;;;7.61;62.42;102245.38;695756;28;1366;-93
2022/03/15 00:30:24;;;;;;;21.02;12.15;;;;;;;7.61;62.78;102240.19;695598;28;1267;-93
2022/03/15 00:30:46;;;;;;;21.80;12.38;;;;;;;7.65;62.34;102236.97;688178;28;1384;-93
2022/03/15 00:31:06;;;;;;;20.60;12.65;;;;;;;7.68;62.17;102243.25;692533;28;1230;-92
2022/03/15 00:31:27;;;;;;;22.70;12.60;;;;;;;7.62;62.22;102235.06;693154;28;1368;-93
2022/03/15 00:31:48;;;;;;;20.25;11.75;;;;;;;7.68;62.22;102240.66;693272;28;1345;-93
2022/03/15 00:32:09;;;;;;;22.70;12.27;;;;;;;7.68;62.25;102237.19;698526;28;1267;-93
2022/03/15 00:32:29;;;;;;;21.30;12.30;;;;;;;7.71;62.19;102244.25;695377;28;1199;-93
2022/03/15 00:32:53;;;;;;;24.65;13.13;;;;;;;7.70;62.11;102234.66;692163;28;1379;-93
2022/03/15 00:33:15;;;;;;;22.85;12.68;;;;;;;7.70;62.06;102234.66;691677;28;1202;-93
2022/03/15 00:33:39;;;;;;;21.65;12.50;;;;;;;7.74;62.16;102242.75;694696;28;1332;-93
2022/03/15 00:34:00;;;;;;;16.63;11.52;;;;;;;7.67;61.93;102230.16;690638;28;1626;-92
2022/03/15 00:34:21;;;;;;;18.60;11.40;;;;;;;7.70;61.73;102237.25;694269;28;1469;-93
2022/03/15 00:34:42;;;;;;;18.27;11.05;;;;;;;7.67;61.96;102231.06;696097;28;1872;-92
2022/03/15 00:35:07;;;;;;;17.50;11.27;;;;;;;7.64;61.90;102223.09;691354;28;1407;-93
2022/03/15 00:35:27;;;;;;;16.08;11.50;;;;;;;7.67;62.03;102224.97;690305;28;1207;-93
2022/03/15 00:35:51;;;;;;;16.00;11.87;;;;;;;7.68;62.03;102227.66;695834;28;1888;-93
2022/03/15 00:36:12;;;;;;;17.48;12.43;;;;;;;7.69;62.40;102228.59;693228;28;1297;-93
2022/03/15 00:36:35;;;;;;;18.55;12.88;;;;;;;7.66;61.81;102226.69;695476;28;1333;-93
2022/03/15 00:36:55;;;;;;;19.85;13.15;;;;;;;7.55;62.08;102227.69;691016;28;1269;-93
2022/03/15 00:37:16;;;;;;;20.15;12.82;;;;;;;7.32;62.56;102231.41;693942;28;1353;-92
2022/03/15 00:37:37;;;;;;;21.33;12.73;;;;;;;7.49;62.47;102227.31;695052;28;1262;-93
2022/03/15 00:37:58;;;;;;;23.13;12.85;;;;;;;7.57;62.59;102228.69;692375;28;1449;-94
2022/03/15 00:38:18;;;;;;;22.97;13.07;;;;;;;7.62;62.27;102237.66;696499;28;1140;-93
2022/03/15 00:38:41;;;;;;;21.25;12.98;;;;;;;7.60;62.47;102240.97;693016;28;1342;-93
2022/03/15 00:39:02;;;;;;;19.58;13.00;;;;;;;7.58;62.47;102239.97;687983;28;1195;-93
2022/03/15 00:39:23;;;;;;;18.65;12.63;;;;;;;7.47;62.49;102223.69;691718;28;1485;-93
2022/03/15 00:39:44;;;;;;;20.17;12.73;;;;;;;7.53;61.94;102237.09;691366;28;1295;-93
2022/03/15 00:40:05;;;;;;;21.45;12.68;;;;;;;7.53;62.46;102240.59;689020;28;1527;-93
2022/03/15 00:40:27;;;;;;;22.13;12.65;;;;;;;7.49;62.40;102237.69;696276;28;1419;-92
2022/03/15 00:40:48;;;;;;;20.63;12.90;;;;;;;7.46;62.75;102230.59;692801;28;1331;-92
2022/03/15 00:41:10;;;;;;;18.67;13.18;;;;;;;7.44;62.80;102228.69;691327;28;1527;-92
2022/03/15 00:41:31;;;;;;;18.65;13.20;;;;;;;7.42;62.50;102225.13;697232;28;1325;-92
2022/03/15 00:41:52;;;;;;;20.20;13.90;;;;;;;7.46;62.49;102235.81;687896;28;1338;-92
2022/03/15 00:42:13;;;;;;;21.00;13.97;;;;;;;7.46;62.71;102229.69;693685;28;1291;-92
2022/03/15 00:42:33;;;;;;;22.10;14.40;;;;;;;7.46;62.59;102234.88;694268;28;1225;-92
2022/03/15 00:42:55;;;;;;;20.48;13.45;;;;;;;7.42;62.52;102228.59;689761;28;1889;-92
2022/03/15 00:43:21;;;;;;;21.05;13.02;;;;;;;7.47;62.79;102237.59;689110;28;1285;-93
2022/03/15 00:43:43;;;;;;;21.60;13.50;;;;;;;7.42;62.19;102228.59;690170;28;1264;-92
2022/03/15 00:44:04;;;;;;;21.48;13.30;;;;;;;7.42;62.69;102232.91;690439;28;1418;-92
2022/03/15 00:44:24;;;;;;;20.10;13.15;;;;;;;7.46;62.67;102243.59;690723;28;1448;-92
2022/03/15 00:44:45;;;;;;;19.10;12.87;;;;;;;7.40;62.54;102228.53;691902;28;1261;-92
2022/03/15 00:45:07;;;;;;;18.98;13.27;;;;;;;7.45;62.59;102235.69;696013;28;1435;-92
2022/03/15 00:45:28;;;;;;;19.70;13.38;;;;;;;7.42;62.59;102235.50;692778;28;1265;-92
2022/03/15 00:45:50;;;;;;;19.75;13.40;;;;;;;7.40;62.37;102235.41;689348;28;1216;-92
2022/03/15 00:46:10;;;;;;;18.90;13.35;;;;;;;7.45;62.46;102231.41;687929;28;1390;-92
2022/03/15 00:46:39;;;;;;;19.25;13.40;;;;;;;7.37;62.37;102227.41;690371;28;1409;-92
2022/03/15 00:47:02;;;;;;;20.58;13.90;;;;;;;7.40;62.39;102243.19;693051;28;1334;-92
2022/03/15 00:47:23;;;;;;;19.45;13.55;;;;;;;7.36;62.80;102234.31;694510;28;1283;-92
2022/03/15 00:47:44;;;;;;;21.00;14.10;;;;;;;7.40;62.70;102245.78;694816;28;1417;-90
2022/03/15 00:48:07;;;;;;;20.25;14.13;;;;;;;7.43;62.64;102252.88;690328;28;1400;-92
2022/03/15 00:48:28;;;;;;;21.13;14.27;;;;;;;7.33;62.79;102233.19;692991;28;1326;-92
2022/03/15 00:48:49;;;;;;;19.40;13.40;;;;;;;7.38;62.83;102243.09;689704;28;1159;-92
2022/03/15 00:49:09;;;;;;;20.30;13.27;;;;;;;7.29;62.91;102232.09;693487;28;1714;-92
2022/03/15 00:49:30;;;;;;;21.03;13.70;;;;;;;7.33;62.59;102235.78;690151;28;1289;-92
2022/03/15 00:49:51;;;;;;;20.85;13.85;;;;;;;7.38;62.69;102244.81;693967;28;1542;-92
2022/03/15 00:50:11;;;;;;;20.10;13.85;;;;;;;7.30;62.35;102233.91;696022;28;1347;-92
2022/03/15 00:50:33;;;;;;;19.80;13.70;;;;;;;7.34;62.77;102238.50;694215;28;1340;-91
2022/03/15 00:50:54;;;;;;;19.02;13.18;;;;;;;7.35;62.70;102237.69;694723;28;1383;-92
2022/03/15 00:51:14;;;;;;;18.25;12.60;;;;;;;7.30;62.31;102230.41;690388;28;1265;-92
2022/03/15 00:51:36;;;;;;;18.08;11.55;;;;;;;7.35;62.56;102242.91;693238;28;1192;-90
2022/03/15 00:51:56;;;;;;;18.55;11.82;;;;;;;7.36;62.64;102238.56;690494;28;1278;-92
2022/03/15 00:52:38;;;;;;;19.30;12.65;;;;;;;7.32;62.73;102231.41;691815;28;1274;-92
2022/03/15 00:53:11;;;;;;;20.42;12.48;;;;;;;7.28;63.16;102235.50;691040;28;1302;-92
2022/03/15 00:53:32;;;;;;;19.55;12.30;;;;;;;7.28;62.92;102230.31;697343;28;1331;-92
2022/03/15 00:54:05;;;;;;;19.83;12.00;;;;;;;7.28;63.16;102232.91;697659;28;1299;-92
2022/03/15 00:54:28;;;;;;;19.38;11.52;;;;;;;7.26;62.70;102226.72;692742;28;1537;-92
2022/03/15 00:54:49;;;;;;;17.80;11.40;;;;;;;7.22;62.46;102223.03;696280;28;1684;-92
2022/03/15 00:55:11;;;;;;;17.50;11.23;;;;;;;7.34;62.86;102232.41;692847;28;1282;-91
2022/03/15 00:55:31;;;;;;;18.48;11.30;;;;;;;7.24;62.91;102207.53;692406;28;1306;-93
2022/03/15 00:55:52;;;;;;;20.08;11.63;;;;;;;7.30;62.48;102239.09;691602;28;1972;-92
2022/03/15 00:56:19;;;;;;;19.40;12.00;;;;;;;7.29;63.08;102232.09;692463;28;1309;-92
2022/03/15 00:56:39;;;;;;;18.33;12.43;;;;;;;7.16;62.59;102234.69;694079;28;1686;-91
2022/03/15 00:57:00;;;;;;;19.80;12.88;;;;;;;7.17;63.21;102226.13;695614;28;1555;-92
2022/03/15 00:57:21;;;;;;;21.00;13.23;;;;;;;7.05;63.18;102234.00;691590;28;1262;-92
2022/03/15 00:57:41;;;;;;;19.40;12.77;;;;;;;6.91;63.21;102227.88;692754;28;1314;-91
2022/03/15 00:58:02;;;;;;;19.48;12.57;;;;;;;6.91;63.88;102240.84;693257;28;1336;-91
2022/03/15 00:58:23;;;;;;;18.88;12.38;;;;;;;6.81;63.65;102228.97;690480;28;1291;-92
2022/03/15 00:58:43;;;;;;;18.70;12.23;;;;;;;6.75;64.14;102226.84;693681;28;1443;-92
2022/03/15 00:59:04;;;;;;;17.10;12.00;;;;;;;6.71;63.91;102224.84;698870;28;1165;-93
2022/03/15 00:59:24;;;;;;;18.17;12.40;;;;;;;6.76;64.13;102233.84;692159;28;1327;-92
2022/03/15 00:59:45;;;;;;;18.52;12.50;;;;;;;6.65;64.14;102225.31;687312;28;1318;-92
2022/03/15 01:00:08;;;;;;;21.40;13.13;;;;;;;6.67;64.07;102218.53;691668;28;1746;-93
2022/03/15 01:00:30;;;;;;;19.33;12.77;;;;;;;6.62;64.63;102232.00;690523;28;1237;-92
2022/03/15 01:00:51;;;;;;;18.65;12.68;;;;;;;6.56;64.62;102235.97;692179;28;1377;-92
2022/03/15 01:01:11;;;;;;;17.20;12.38;;;;;;;6.56;64.50;102243.75;694611;28;1133;-92
2022/03/15 01:01:32;;;;;;;16.45;11.95;;;;;;;6.48;65.06;102233.63;691085;28;1342;-92
2022/03/15 01:01:52;;;;;;;18.55;12.68;;;;;;;6.49;65.16;102238.94;689920;28;1312;-92
2022/03/15 01:02:13;;;;;;;18.70;12.20;;;;;;;6.55;65.12;102244.53;696621;28;1192;-92
2022/03/15 01:02:35;;;;;;;19.58;12.52;;;;;;;6.51;64.89;102229.56;693747;28;1267;-92
2022/03/15 01:02:55;;;;;;;18.33;12.10;;;;;;;6.54;64.95;102240.16;693725;28;1392;-92
2022/03/15 01:03:16;;;;;;;16.97;12.03;;;;;;;6.53;65.27;102227.97;689782;28;1366;-93
2022/03/15 01:03:37;;;;;;;15.15;11.50;;;;;;;6.62;65.26;102244.97;691226;28;1298;-92
2022/03/15 01:03:57;;;;;;;16.63;11.65;;;;;;;6.58;64.72;102238.66;693133;28;1225;-92
2022/03/15 01:04:21;;;;;;;19.77;11.98;;;;;;;6.58;65.13;102234.38;692966;28;1291;-92
2022/03/15 01:04:41;;;;;;;21.23;13.18;;;;;;;6.60;64.63;102237.06;691584;28;1556;-92
2022/03/15 01:05:03;;;;;;;20.00;13.00;;;;;;;6.57;65.02;102237.75;699119;28;1280;-92
2022/03/15 01:05:24;;;;;;;22.20;12.88;;;;;;;6.64;64.79;102246.84;698730;28;1227;-91
2022/03/15 01:05:44;;;;;;;21.17;12.20;;;;;;;6.57;65.01;102242.94;693721;28;1203;-92
2022/03/15 01:06:09;;;;;;;21.58;12.90;;;;;;;6.56;65.12;102237.63;691440;28;1254;-92
2022/03/15 01:06:29;;;;;;;19.05;12.27;;;;;;;6.58;65.08;102239.56;690665;28;1282;-92
2022/03/15 01:06:50;;;;;;;18.47;12.20;;;;;;;6.55;64.88;102236.75;690890;28;1230;-91
2022/03/15 01:07:12;;;;;;;17.95;11.85;;;;;;;6.53;65.02;102235.75;689397;28;1397;-92
2022/03/15 01:07:33;;;;;;;18.02;12.80;;;;;;;6.55;64.93;102234.16;690074;28;1341;-92
2022/03/15 01:07:54;;;;;;;19.50;12.45;;;;;;;6.52;64.77;102239.13;694298;28;1692;-92
2022/03/15 01:08:14;;;;;;;18.60;12.23;;;;;;;6.54;64.85;102237.56;692407;28;1360;-92
2022/03/15 01:08:35;;;;;;;18.50;11.53;;;;;;;6.50;64.85;102230.34;693658;28;1317;-92
2022/03/15 01:08:57;;;;;;;19.02;12.38;;;;;;;6.56;64.69;102235.97;692701;28;1347;-92
2022/03/15 01:09:18;;;;;;;18.97;12.37;;;;;;;6.52;64.84;102241.72;694066;28;1548;-92
2022/03/15 01:09:39;;;;;;;17.98;12.48;;;;;;;6.50;64.90;102235.53;693336;28;1473;-92
2022/03/15 01:10:00;;;;;;;17.08;12.40;;;;;;;6.53;64.87;102234.84;686455;28;1347;-92
2022/03/15 01:10:21;;;;;;;19.80;12.80;;;;;;;6.51;64.77;102232.13;689050;28;1187;-92
2022/03/15 01:10:43;;;;;;;19.70;12.45;;;;;;;6.52;65.05;102230.47;690445;28;1222;-92
2022/03/15 01:11:05;;;;;;;19.58;12.32;;;;;;;6.46;64.78;102233.53;690831;28;1225;-92
2022/03/15 01:11:25;;;;;;;18.48;12.55;;;;;;;6.45;64.96;102226.56;693082;28;1309;-92
2022/03/15 01:11:46;;;;;;;19.75;12.90;;;;;;;6.51;65.09;102231.25;695809;28;1379;-90
2022/03/15 01:12:07;;;;;;;18.80;12.40;;;;;;;6.52;64.95;102239.13;693065;28;1285;-93
2022/03/15 01:12:28;;;;;;;16.70;11.48;;;;;;;6.47;64.75;102229.22;687856;28;1317;-92
2022/03/15 01:12:48;;;;;;;14.98;11.13;;;;;;;6.45;65.09;102223.97;689238;28;1290;-92
2022/03/15 01:13:09;;;;;;;16.23;11.33;;;;;;;6.47;65.16;102230.16;695574;28;1554;-92
2022/03/15 01:13:30;;;;;;;16.80;11.40;;;;;;;6.49;65.17;102232.81;691060;28;1477;-92
2022/03/15 01:13:51;;;;;;;18.48;12.00;;;;;;;6.44;64.99;102224.72;692446;28;1317;-92
2022/03/15 01:14:11;;;;;;;18.08;12.00;;;;;;;6.46;64.72;102230.94;691522;28;1424;-92
2022/03/15 01:14:33;;;;;;;18.02;12.15;;;;;;;6.50;65.06;102238.13;691046;28;1199;-92
2022/03/15 01:14:54;;;;;;;18.30;12.45;;;;;;;6.46;65.03;102233.53;690898;28;1321;-92
2022/03/15 01:15:15;;;;;;;19.63;12.77;;;;;;;6.47;64.95;102239.63;690464;28;1198;-92
2022/03/15 01:15:42;;;;;;;18.70;12.60;;;;;;;6.47;65.11;102231.84;693644;28;1344;-91
2022/03/15 01:16:03;;;;;;;17.73;11.80;;;;;;;6.40;64.92;102221.03;688236;28;1270;-92
2022/03/15 01:16:24;;;;;;;18.83;11.85;;;;;;;6.41;64.96;102224.53;694007;28;1519;-92
2022/03/15 01:16:45;;;;;;;19.10;12.18;;;;;;;6.42;64.95;102228.94;693226;28;1628;-92
2022/03/15 01:17:05;;;;;;;18.97;12.33;;;;;;;6.38;65.15;102222.63;692216;28;1325;-92
2022/03/15 01:17:26;;;;;;;18.67;12.20;;;;;;;6.38;65.24;102225.22;690953;28;1317;-91
2022/03/15 01:17:47;;;;;;;20.15;12.57;;;;;;;6.41;65.30;102230.63;690806;28;1464;-91
2022/03/15 01:18:07;;;;;;;20.15;12.75;;;;;;;6.40;65.37;102222.75;695911;28;1434;-92
2022/03/15 01:18:30;;;;;;;19.88;12.70;;;;;;;6.40;65.34;102226.22;693019;28;1273;-91
2022/03/15 01:18:51;;;;;;;18.85;12.73;;;;;;;6.40;65.25;102230.53;696056;28;1346;-92
2022/03/15 01:19:12;;;;;;;17.80;12.53;;;;;;;6.47;65.16;102237.94;690804;28;1298;-92
2022/03/15 01:19:33;;;;;;;19.60;12.70;;;;;;;6.47;65.16;102239.63;688330;28;1433;-92
2022/03/15 01:19:53;;;;;;;21.75;13.02;;;;;;;6.38;65.16;102224.34;693062;28;1314;-92
2022/03/15 01:20:14;;;;;;;24.70;14.13;;;;;;;6.41;65.18;102233.22;687909;28;1291;-92
2022/03/15 01:20:34;;;;;;;22.20;13.50;;;;;;;6.44;65.15;102237.69;691962;28;1328;-92
2022/03/15 01:20:55;;;;;;;20.40;13.07;;;;;;;6.38;65.27;102225.22;692844;28;1533;-92
2022/03/15 01:21:19;;;;;;;18.17;12.15;;;;;;;6.42;65.42;102226.34;690655;28;1348;-92
2022/03/15 01:21:40;;;;;;;20.17;12.90;;;;;;;6.40;65.03;102234.00;692156;28;1435;-92
2022/03/15 01:22:01;;;;;;;19.48;12.55;;;;;;;6.40;65.25;102227.94;695784;28;1306;-92
2022/03/15 01:22:22;;;;;;;20.60;13.00;;;;;;;6.32;65.00;102214.41;693523;28;1658;-92
2022/03/15 01:22:42;;;;;;;19.40;12.85;;;;;;;6.43;65.08;102238.50;691450;28;1420;-91
2022/03/15 01:23:03;;;;;;;20.60;12.67;;;;;;;6.39;64.96;102236.50;688087;28;1458;-92
2022/03/15 01:23:24;;;;;;;17.70;11.73;;;;;;;6.38;65.51;102229.53;690483;28;1163;-92
2022/03/15 01:23:45;;;;;;;18.27;11.50;;;;;;;6.35;65.29;102224.09;695561;28;1224;-91
2022/03/15 01:24:08;;;;;;;16.85;11.85;;;;;;;6.39;65.38;102226.13;692975;28;1225;-91
2022/03/15 01:24:44;;;;;;;17.10;11.90;;;;;;;6.44;65.55;102240.28;691248;28;1720;-91
2022/03/15 01:25:08;;;;;;;16.25;11.73;;;;;;;6.41;65.36;102230.63;693301;28;1364;-91
2022/03/15 01:25:31;;;;;;;17.13;12.45;;;;;;;6.38;65.09;102222.63;691822;28;1337;-91
2022/03/15 01:25:51;;;;;;;20.90;13.00;;;;;;;6.42;64.87;102231.50;695109;28;1269;-92
2022/03/15 01:26:14;;;;;;;20.48;13.23;;;;;;;6.39;65.27;102223.53;694755;28;1085;-92
2022/03/15 01:26:37;;;;;;;21.80;12.70;;;;;;;6.48;65.34;102239.72;696576;28;1341;-92
2022/03/15 01:26:58;;;;;;;21.23;12.40;;;;;;;6.49;65.10;102245.78;698998;28;1516;-92
2022/03/15 01:27:20;;;;;;;19.63;12.07;;;;;;;6.37;65.27;102219.91;693520;28;1447;-92
2022/03/15 01:27:40;;;;;;;17.55;12.25;;;;;;;6.40;65.23;102230.53;691041;28;1523;-90
2022/03/15 01:28:01;;;;;;;18.00;12.43;;;;;;;6.38;65.43;102226.94;693367;28;1307;-92
2022/03/15 01:28:54;;;;;;;19.05;13.10;;;;;;;6.47;65.27;102237.94;693679;28;1337;-92
2022/03/15 01:29:20;;;;;;;19.17;12.85;;;;;;;6.37;65.58;102217.31;693518;28;1242;-92
2022/03/15 01:29:42;;;;;;;18.63;12.60;;;;;;;6.35;65.47;102214.66;695975;28;1496;-92
2022/03/15 01:30:03;;;;;;;18.33;12.30;;;;;;;6.37;65.27;102212.13;690706;28;1325;-92
2022/03/15 01:30:24;;;;;;;18.70;12.10;;;;;;;6.42;65.43;102218.56;689487;28;1401;-92
2022/03/15 01:30:45;;;;;;;17.40;11.88;;;;;;;6.44;65.31;102224.72;689014;28;1307;-92
2022/03/15 01:31:06;;;;;;;17.63;11.95;;;;;;;6.38;65.57;102212.25;693858;28;1282;-91
2022/03/15 01:31:27;;;;;;;17.08;12.02;;;;;;;6.46;65.41;102217.97;694996;28;1339;-92
2022/03/15 01:31:48;;;;;;;16.83;11.52;;;;;;;6.51;65.47;102223.47;698555;28;1423;-91
2022/03/15 01:32:08;;;;;;;16.52;11.60;;;;;;;6.47;65.24;102219.78;695239;28;1302;-92
2022/03/15 01:32:29;;;;;;;17.00;11.73;;;;;;;6.49;65.09;102220.78;695950;28;1389;-91
2022/03/15 01:32:50;;;;;;;17.58;12.50;;;;;;;6.41;65.31;102203.78;696038;28;1368;-91
2022/03/15 01:33:11;;;;;;;18.45;12.30;;;;;;;6.43;65.18;102210.88;690560;28;1290;-92
2022/03/15 01:35:19;;;;;;;18.23;12.35;;;;;;;6.35;65.39;102203.38;694114;28;1367;-91
2022/03/15 01:35:47;;;;;;;16.58;11.80;;;;;;;6.40;65.53;102214.97;694539;28;1914;-91
2022/03/15 01:36:13;;;;;;;16.58;12.27;;;;;;;6.42;65.03;102218.56;691138;28;1141;-92
2022/03/15 01:36:34;;;;;;;17.05;12.30;;;;;;;6.39;65.41;102220.94;692487;28;1522;-92
2022/03/15 01:36:55;;;;;;;16.90;12.48;;;;;;;6.35;65.60;102212.06;698807;28;1224;-92
2022/03/15 01:37:15;;;;;;;16.35;12.32;;;;;;;6.37;65.62;102219.91;691585;28;1494;-91
2022/03/15 01:37:36;;;;;;;15.43;12.27;;;;;;;6.28;65.31;102202.94;690268;28;1520;-91
2022/03/15 01:38:03;;;;;;;16.17;12.48;;;;;;;6.34;65.78;102211.94;690500;28;1408;-92
2022/03/15 01:38:27;;;;;;;19.42;12.45;;;;;;;6.37;65.53;102217.31;691982;28;1137;-91
2022/03/15 01:38:50;;;;;;;19.52;12.82;;;;;;;6.34;65.72;102212.84;691082;28;1289;-92
2022/03/15 01:39:11;;;;;;;20.58;12.48;;;;;;;6.34;65.67;102211.94;690364;28;1392;-91
2022/03/15 01:39:37;;;;;;;18.48;12.32;;;;;;;6.29;65.81;102203.84;690640;28;1194;-91
2022/03/15 01:39:57;;;;;;;18.67;12.20;;;;;;;6.35;66.08;102212.06;693168;28;1340;-91
2022/03/15 01:40:18;;;;;;;17.85;12.18;;;;;;;6.32;65.54;102206.63;690345;28;1361;-91
2022/03/15 01:40:38;;;;;;;19.15;11.90;;;;;;;6.32;65.81;102197.97;690734;28;1343;-92
2022/03/15 01:40:59;;;;;;;19.40;11.93;;;;;;;6.36;65.82;102213.84;694872;28;1268;-92
2022/03/15 01:41:21;;;;;;;17.30;11.73;;;;;;;6.35;65.76;102206.88;691009;28;1277;-91
2022/03/15 01:41:44;;;;;;;16.83;12.40;;;;;;;6.36;65.72;102211.25;693700;28;1293;-92
2022/03/15 01:42:04;;;;;;;18.48;12.57;;;;;;;6.29;65.72;102194.38;690911;28;1257;-92
2022/03/15 01:42:25;;;;;;;18.30;12.50;;;;;;;6.29;65.58;102204.75;689480;28;1266;-90
2022/03/15 01:43:15;;;;;;;17.33;12.43;;;;;;;6.38;65.71;102208.78;692273;28;1589;-92
2022/03/15 01:43:35;;;;;;;17.67;12.18;;;;;;;6.32;65.40;102201.44;694805;28;1422;-90
2022/03/15 01:43:56;;;;;;;17.38;11.80;;;;;;;6.34;65.69;102212.84;695968;28;1340;-92
2022/03/15 01:44:20;;;;;;;16.92;12.25;;;;;;;6.37;65.59;102210.47;689836;28;1497;-91
2022/03/15 01:44:49;;;;;;;18.27;12.73;;;;;;;6.39;65.69;102205.38;694940;28;1491;-91
2022/03/15 01:45:10;;;;;;;19.65;13.00;;;;;;;6.38;65.73;102212.25;695054;28;1363;-92